Time;durP1;ratioP1;P1;durP2;ratioP2;P2;SDS_P1;SDS_P2;PMS_P1;PMS_P2;Temp;Humidity;BMP_temperature;BMP_pressure;BME280_temperature;BME280_humidity;BME280_pressure;Samples;Min_cycle;Max_cycle;Signal;HPM_P1;HPM_P2
2021/06/21 01:29:16;;;;;;;11.90;4.10;;;19.60;99.90;;;;;;5115105;22;20241;-85
2021/06/21 01:35:34;;;;;;;7.40;3.07;;;19.50;99.90;;;;;;5034076;28;20247;-85
2021/06/21 01:38:12;;;;;;;7.13;2.60;;;19.50;99.90;;;;;;5061934;28;20240;-86
2021/06/21 01:40:47;;;;;;;9.47;3.20;;;19.50;99.90;;;;;;5063554;28;21283;-86
2021/06/21 01:52:47;;;;;;;16.80;3.07;;;19.70;99.90;;;;;;5020336;28;20206;-85
2021/06/21 01:58:56;;;;;;;9.33;2.73;;;19.70;99.90;;;;;;5017400;28;20750;-86
2021/06/21 02:01:24;;;;;;;7.93;2.50;;;19.60;99.90;;;;;;5021677;28;20199;-87
2021/06/21 02:03:54;;;;;;;9.10;2.47;;;19.60;99.90;;;;;;5062415;28;20637;-87
2021/06/21 02:06:22;;;;;;;9.40;2.67;;;19.60;99.90;;;;;;5061512;28;20308;-86
2021/06/21 02:08:52;;;;;;;7.70;2.80;;;19.50;99.90;;;;;;5060154;28;20261;-86
2021/06/21 02:11:19;;;;;;;9.77;2.80;;;19.50;99.90;;;;;;5063695;28;20229;-85
2021/06/21 02:13:50;;;;;;;10.70;2.63;;;19.50;99.90;;;;;;5065625;28;20202;-85
2021/06/21 02:16:18;;;;;;;12.27;2.40;;;19.50;99.90;;;;;;5065542;28;20287;-86
2021/06/21 02:18:47;;;;;;;10.77;2.60;;;19.50;99.90;;;;;;5065850;28;20226;-83
2021/06/21 02:21:15;;;;;;;10.17;2.90;;;19.50;99.90;;;;;;5073395;28;21148;-86
2021/06/21 02:23:43;;;;;;;8.20;2.33;;;19.50;99.90;;;;;;5075616;28;20202;-84
2021/06/21 02:26:12;;;;;;;10.23;2.50;;;19.50;99.90;;;;;;5072808;28;20243;-86
2021/06/21 02:28:41;;;;;;;10.93;2.90;;;19.50;99.90;;;;;;5071514;28;20210;-87
2021/06/21 02:31:09;;;;;;;9.83;2.50;;;19.40;99.90;;;;;;5076241;28;20916;-85
2021/06/21 02:33:36;;;;;;;16.33;3.23;;;19.40;99.90;;;;;;5076865;28;20715;-86
2021/06/21 02:36:05;;;;;;;17.70;2.93;;;19.30;99.90;;;;;;5077887;28;20206;-85
2021/06/21 02:38:32;;;;;;;12.43;2.90;;;19.30;99.90;;;;;;5081899;28;20275;-86
2021/06/21 02:40:59;;;;;;;8.93;3.40;;;19.20;99.90;;;;;;5078000;28;20202;-84
2021/06/21 02:43:28;;;;;;;10.97;3.33;;;19.10;99.90;;;;;;5067323;28;20564;-84
2021/06/21 02:45:54;;;;;;;10.10;2.70;;;19.10;99.90;;;;;;5063407;28;20226;-84
2021/06/21 02:48:22;;;;;;;8.53;2.90;;;19.00;99.90;;;;;;5064467;28;20234;-84
2021/06/21 02:50:50;;;;;;;10.97;2.80;;;19.10;99.90;;;;;;5061036;28;20591;-85
2021/06/21 02:53:26;;;;;;;8.77;2.70;;;19.00;99.90;;;;;;5065301;28;20547;-86
2021/06/21 02:55:59;;;;;;;14.70;2.93;;;19.00;99.90;;;;;;5064713;28;20199;-84
2021/06/21 02:58:30;;;;;;;12.30;3.57;;;19.00;99.90;;;;;;5061790;28;20234;-84
2021/06/21 03:01:02;;;;;;;11.70;3.33;;;19.00;99.90;;;;;;5066374;28;20272;-84
2021/06/21 03:03:32;;;;;;;14.30;3.30;;;18.90;99.90;;;;;;5066803;28;20236;-84
2021/06/21 03:06:01;;;;;;;9.93;3.63;;;18.90;99.90;;;;;;5066379;28;20222;-85
2021/06/21 03:08:29;;;;;;;15.33;3.30;;;18.90;99.90;;;;;;5064363;28;20222;-86
2021/06/21 03:10:58;;;;;;;12.43;3.23;;;19.00;99.90;;;;;;5061558;28;20198;-84
2021/06/21 03:13:26;;;;;;;11.57;3.30;;;19.00;99.90;;;;;;5071592;28;20207;-85
2021/06/21 03:15:56;;;;;;;11.37;3.40;;;19.00;99.90;;;;;;5067881;28;20198;-84
2021/06/21 03:18:24;;;;;;;11.93;3.07;;;19.00;99.90;;;;;;5065385;28;20227;-85
2021/06/21 03:20:52;;;;;;;12.00;3.40;;;18.90;99.90;;;;;;5065275;28;20202;-86
2021/06/21 03:23:22;;;;;;;14.20;2.97;;;19.00;99.90;;;;;;5071919;28;20202;-86
2021/06/21 03:25:51;;;;;;;11.37;3.03;;;19.00;99.90;;;;;;5065319;28;20231;-86
2021/06/21 03:28:18;;;;;;;13.83;3.13;;;19.00;99.90;;;;;;5063786;28;20226;-86
2021/06/21 03:30:48;;;;;;;10.57;3.13;;;19.10;99.90;;;;;;5064894;28;20277;-86
2021/06/21 03:33:17;;;;;;;10.57;3.20;;;19.10;99.90;;;;;;5073227;28;20206;-87
2021/06/21 03:35:50;;;;;;;11.77;2.90;;;19.00;99.90;;;;;;5070191;28;20210;-86
2021/06/21 03:38:25;;;;;;;11.83;3.40;;;19.00;99.90;;;;;;5072185;28;20214;-86
2021/06/21 03:40:56;;;;;;;14.87;3.60;;;18.90;99.90;;;;;;5065911;28;20218;-86
2021/06/21 03:43:25;;;;;;;14.63;3.07;;;19.00;99.90;;;;;;5071398;28;20202;-87
2021/06/21 03:45:54;;;;;;;10.43;3.10;;;18.90;99.90;;;;;;5061255;28;20587;-86
2021/06/21 03:48:27;;;;;;;12.83;2.60;;;18.90;99.90;;;;;;5065288;28;20239;-87
2021/06/21 03:50:58;;;;;;;11.57;2.73;;;19.00;99.90;;;;;;5067935;28;20257;-87
2021/06/21 03:53:29;;;;;;;9.23;2.10;;;18.90;99.90;;;;;;5069787;28;20198;-86
2021/06/21 03:55:56;;;;;;;13.60;2.67;;;18.90;99.90;;;;;;5069964;28;20256;-87
2021/06/21 03:58:24;;;;;;;8.63;2.27;;;19.00;99.90;;;;;;5064357;28;20712;-88
2021/06/21 04:00:51;;;;;;;14.63;2.67;;;19.00;99.90;;;;;;5069597;28;20244;-86
2021/06/21 04:03:18;;;;;;;15.37;2.73;;;18.90;99.90;;;;;;5080107;28;20760;-85
2021/06/21 04:05:53;;;;;;;9.60;2.23;;;18.90;99.90;;;;;;5080388;28;20218;-86
2021/06/21 04:08:20;;;;;;;13.13;2.50;;;18.90;99.90;;;;;;5077995;28;20299;-86
2021/06/21 04:10:49;;;;;;;6.70;2.00;;;18.80;99.90;;;;;;5070086;28;20215;-86
2021/06/21 04:13:18;;;;;;;10.87;1.97;;;18.90;99.90;;;;;;5067085;28;20233;-86
2021/06/21 04:15:46;;;;;;;7.70;2.30;;;18.80;99.90;;;;;;5065850;28;20226;-87
2021/06/21 04:18:16;;;;;;;10.40;2.03;;;18.70;99.90;;;;;;5065636;28;20225;-87
2021/06/21 04:20:44;;;;;;;11.53;2.37;;;18.80;99.90;;;;;;5064515;28;20547;-87
2021/06/21 04:23:13;;;;;;;9.33;2.60;;;18.80;99.90;;;;;;5069065;28;20214;-86
2021/06/21 04:25:41;;;;;;;10.27;2.20;;;18.80;99.90;;;;;;5067335;28;20206;-86
2021/06/21 04:28:09;;;;;;;11.40;2.27;;;18.80;99.90;;;;;;5069289;28;20225;-86
2021/06/21 04:30:37;;;;;;;7.27;1.90;;;18.90;99.90;;;;;;5065471;28;20214;-87
2021/06/21 04:33:04;;;;;;;10.93;1.97;;;19.00;99.90;;;;;;5062992;28;20643;-87
2021/06/21 04:35:32;;;;;;;13.77;1.80;;;19.10;99.90;;;;;;5066072;28;20272;-85
2021/06/21 04:37:59;;;;;;;9.77;2.33;;;19.10;99.90;;;;;;5064384;28;20226;-87
2021/06/21 04:40:32;;;;;;;22.17;2.47;;;19.00;99.90;;;;;;5063345;28;20206;-85
2021/06/21 04:42:59;;;;;;;11.53;2.00;;;18.90;99.90;;;;;;5062121;28;20285;-86
2021/06/21 04:45:26;;;;;;;9.07;1.80;;;18.90;99.90;;;;;;5066610;28;20210;-86
2021/06/21 04:47:54;;;;;;;10.47;2.07;;;18.80;99.90;;;;;;5064410;28;20225;-87
2021/06/21 04:50:21;;;;;;;18.97;2.50;;;18.90;99.90;;;;;;5061657;28;20202;-86
2021/06/21 04:52:50;;;;;;;11.00;2.07;;;19.00;99.90;;;;;;5066063;28;20225;-84
2021/06/21 04:55:20;;;;;;;5.70;2.10;;;19.00;99.90;;;;;;5061084;28;20267;-86
2021/06/21 04:57:48;;;;;;;7.97;1.60;;;19.00;99.90;;;;;;5065767;28;20765;-86
2021/06/21 05:00:18;;;;;;;14.10;1.97;;;19.10;99.90;;;;;;5062694;28;20206;-86
2021/06/21 05:02:46;;;;;;;17.97;2.10;;;19.10;99.90;;;;;;5065211;28;20611;-85
2021/06/21 05:05:14;;;;;;;8.73;1.70;;;19.10;99.90;;;;;;5068674;28;20218;-84
2021/06/21 05:07:43;;;;;;;8.40;1.80;;;19.20;99.90;;;;;;5065621;28;20246;-85
2021/06/21 05:10:12;;;;;;;8.83;1.90;;;19.20;99.90;;;;;;5064474;28;20308;-85
2021/06/21 05:12:40;;;;;;;11.43;2.33;;;19.20;99.90;;;;;;5063724;28;20206;-86
2021/06/21 05:15:09;;;;;;;7.57;2.07;;;19.30;99.90;;;;;;5065706;28;20212;-85
2021/06/21 05:17:36;;;;;;;11.57;2.40;;;19.40;99.90;;;;;;5063545;28;20658;-86
2021/06/21 05:20:05;;;;;;;12.13;2.63;;;19.40;99.90;;;;;;5064461;28;20609;-87
2021/06/21 05:22:32;;;;;;;8.17;1.73;;;19.30;99.90;;;;;;5066229;28;20206;-85
2021/06/21 05:25:00;;;;;;;14.03;2.77;;;19.30;99.90;;;;;;5067814;28;20673;-86
2021/06/21 05:27:29;;;;;;;9.53;2.13;;;19.30;99.90;;;;;;5067080;28;21015;-86
2021/06/21 05:29:56;;;;;;;12.33;2.40;;;19.30;99.90;;;;;;5065368;28;20612;-86
2021/06/21 05:32:25;;;;;;;16.30;2.13;;;19.20;99.90;;;;;;5069439;28;20202;-86
2021/06/21 05:34:52;;;;;;;11.03;2.10;;;19.20;99.90;;;;;;5062737;28;20222;-86
2021/06/21 05:37:19;;;;;;;6.63;2.30;;;19.10;99.90;;;;;;5066571;28;20194;-86
2021/06/21 05:39:46;;;;;;;8.97;2.20;;;19.20;99.90;;;;;;5067349;28;20608;-87
2021/06/21 05:42:14;;;;;;;12.77;2.27;;;19.30;99.90;;;;;;5070045;28;20206;-86
2021/06/21 05:44:41;;;;;;;7.93;2.30;;;19.40;99.90;;;;;;5075582;28;20576;-87
2021/06/21 05:47:09;;;;;;;14.23;2.70;;;19.30;99.90;;;;;;5081298;28;20229;-86
2021/06/21 05:49:37;;;;;;;12.60;2.47;;;19.40;99.90;;;;;;5079992;28;20300;-85
2021/06/21 05:52:05;;;;;;;13.33;2.93;;;19.50;99.90;;;;;;5073660;28;20218;-87
2021/06/21 05:54:34;;;;;;;6.43;2.30;;;19.70;99.90;;;;;;5068992;28;20218;-87
2021/06/21 05:57:05;;;;;;;12.33;2.53;;;20.20;99.90;;;;;;5067792;28;20202;-86
2021/06/21 05:59:34;;;;;;;9.87;2.80;;;21.30;99.90;;;;;;5066030;28;20660;-85
2021/06/21 06:02:01;;;;;;;8.47;2.40;;;22.30;99.90;;;;;;5066891;28;20244;-86
2021/06/21 06:04:28;;;;;;;11.20;2.93;;;22.60;99.90;;;;;;5065434;28;20203;-86
2021/06/21 06:06:57;;;;;;;6.20;1.90;;;22.20;99.90;;;;;;5060997;28;20663;-86
2021/06/21 06:09:24;;;;;;;6.07;2.03;;;21.60;99.90;;;;;;5064199;28;20227;-85
2021/06/21 06:11:52;;;;;;;11.13;1.70;;;21.00;99.90;;;;;;5064697;28;20298;-86
2021/06/21 06:14:20;;;;;;;7.20;1.90;;;20.70;99.90;;;;;;5067647;28;20208;-86
2021/06/21 06:16:47;;;;;;;7.43;2.43;;;20.30;99.90;;;;;;5058837;28;20281;-86
2021/06/21 06:19:15;;;;;;;10.57;2.93;;;20.10;99.90;;;;;;5058532;28;20543;-86
2021/06/21 06:21:43;;;;;;;23.37;3.20;;;19.90;99.90;;;;;;5067803;28;20206;-86
2021/06/21 06:24:13;;;;;;;14.10;2.77;;;19.80;99.90;;;;;;5065466;28;20210;-85
2021/06/21 06:26:42;;;;;;;6.67;2.53;;;19.80;99.90;;;;;;5071270;28;20228;-87
2021/06/21 06:29:10;;;;;;;7.80;2.30;;;19.80;99.90;;;;;;5067072;28;20237;-85
2021/06/21 06:31:37;;;;;;;12.27;2.60;;;19.80;99.90;;;;;;5070361;28;20214;-86
2021/06/21 06:34:04;;;;;;;8.87;3.17;;;20.00;99.90;;;;;;5064227;28;20199;-85
2021/06/21 06:36:31;;;;;;;9.80;2.57;;;20.20;99.90;;;;;;5066251;28;20202;-86
2021/06/21 06:38:58;;;;;;;8.10;2.30;;;20.30;99.90;;;;;;5065778;28;20231;-85
2021/06/21 06:41:27;;;;;;;5.53;2.47;;;20.40;99.90;;;;;;5064875;28;20210;-86
2021/06/21 06:43:55;;;;;;;14.43;3.17;;;20.40;99.90;;;;;;5066438;28;20209;-85
2021/06/21 06:46:24;;;;;;;8.17;2.30;;;20.40;99.90;;;;;;5065830;28;20484;-86
2021/06/21 06:48:52;;;;;;;9.57;3.13;;;20.40;99.90;;;;;;5069176;28;20339;-86
2021/06/21 06:51:20;;;;;;;9.00;2.40;;;20.30;99.90;;;;;;5068250;28;20702;-86
2021/06/21 06:53:50;;;;;;;8.67;2.00;;;20.20;99.90;;;;;;5069704;28;20564;-87
2021/06/21 06:59:05;;;;;;;10.60;2.93;;;20.50;99.90;;;;;;5069583;28;20720;-86
2021/06/21 07:01:32;;;;;;;8.97;2.50;;;20.30;99.90;;;;;;5068747;28;20206;-87
2021/06/21 07:04:00;;;;;;;7.47;2.30;;;20.30;99.90;;;;;;5071088;28;20240;-86
2021/06/21 07:06:27;;;;;;;6.97;2.60;;;20.30;99.90;;;;;;5069480;28;20206;-85
2021/06/21 07:08:55;;;;;;;11.03;2.57;;;20.40;99.90;;;;;;5071855;28;20242;-84
2021/06/21 07:11:22;;;;;;;12.17;2.47;;;20.50;99.90;;;;;;5070701;28;20213;-84
2021/06/21 07:13:49;;;;;;;12.40;2.90;;;20.90;99.90;;;;;;5068374;28;20742;-86
2021/06/21 07:16:28;;;;;;;7.53;2.37;;;21.20;99.90;;;;;;5072267;28;20210;-88
2021/06/21 07:18:55;;;;;;;10.30;2.57;;;21.70;99.90;;;;;;5072677;28;20272;-86
2021/06/21 07:21:24;;;;;;;6.17;2.20;;;22.10;99.90;;;;;;5073365;28;20649;-88
2021/06/21 07:23:51;;;;;;;9.90;2.60;;;23.00;99.90;;;;;;5072022;28;20214;-86
2021/06/21 07:26:19;;;;;;;12.07;2.07;;;23.90;99.90;;;;;;5075433;28;20206;-87
2021/06/21 07:28:50;;;;;;;4.80;1.67;;;24.70;99.90;;;;;;5082910;28;20608;-87
2021/06/21 07:31:25;;;;;;;5.07;2.00;;;26.30;99.90;;;;;;5083857;28;20251;-86
2021/06/21 07:33:54;;;;;;;8.07;2.10;;;27.40;99.90;;;;;;5080191;28;20243;-85
2021/06/21 07:36:23;;;;;;;6.60;1.67;;;27.90;99.90;;;;;;5063745;28;20323;-88
2021/06/21 07:38:50;;;;;;;6.33;2.10;;;27.80;99.90;;;;;;5061434;28;20227;-87
2021/06/21 07:41:19;;;;;;;5.23;1.60;;;27.80;99.90;;;;;;5060679;28;20653;-88
2021/06/21 07:43:50;;;;;;;6.70;1.80;;;29.10;99.90;;;;;;5066772;28;20218;-85
2021/06/21 07:46:22;;;;;;;5.67;1.77;;;29.80;99.90;;;;;;5060995;28;20319;-86
2021/06/21 07:48:49;;;;;;;5.03;1.53;;;30.50;99.90;;;;;;5068224;28;20234;-86
2021/06/21 07:51:17;;;;;;;7.47;1.83;;;30.70;99.90;;;;;;5066240;28;20211;-88
2021/06/21 07:53:46;;;;;;;7.83;1.67;;;30.50;99.90;;;;;;5066772;28;20218;-86
2021/06/21 07:56:15;;;;;;;9.82;2.33;;;30.50;99.90;;;;;;5061079;28;20202;-86
2021/06/21 07:58:42;;;;;;;3.63;1.60;;;;;;;;;;5062141;28;20234;-86
2021/06/21 08:01:14;;;;;;;4.63;1.40;;;31.10;99.90;;;;;;5067420;28;20202;-86
2021/06/21 08:03:47;;;;;;;4.75;1.48;;;;;;;;;;5067997;28;20198;-87
2021/06/21 08:06:17;;;;;;;7.75;1.58;;;;;;;;;;5061870;28;20227;-86
2021/06/21 08:08:44;;;;;;;7.47;1.85;;;31.20;99.90;;;;;;5060848;28;20284;-86
2021/06/21 08:11:19;;;;;;;7.70;1.40;;;29.80;99.90;;;;;;5072320;28;20214;-86
2021/06/21 08:13:46;;;;;;;6.83;1.60;;;28.60;99.90;;;;;;5067086;28;20202;-86
2021/06/21 08:16:14;;;;;;;6.07;1.50;;;27.70;99.90;;;;;;5060928;28;20243;-86
2021/06/21 08:18:41;;;;;;;8.33;1.77;;;26.90;99.90;;;;;;5066883;28;20231;-87
2021/06/21 08:21:09;;;;;;;2.77;1.30;;;27.20;99.90;;;;;;5067880;28;20256;-86
2021/06/21 08:23:46;;;;;;;5.93;1.60;;;27.40;99.90;;;;;;5063870;28;20208;-87
2021/06/21 08:26:13;;;;;;;4.80;1.50;;;27.10;99.90;;;;;;5061556;28;20212;-87
2021/06/21 08:28:40;;;;;;;6.03;1.60;;;27.20;99.90;;;;;;5068823;28;20961;-87
2021/06/21 08:31:07;;;;;;;6.00;1.70;;;27.10;99.90;;;;;;5067363;28;20235;-87
2021/06/21 08:33:37;;;;;;;5.03;1.50;;;26.90;99.90;;;;;;5063441;28;20616;-87
2021/06/21 08:36:06;;;;;;;3.73;1.80;;;27.70;99.90;;;;;;5063598;28;20329;-87
2021/06/21 08:38:46;;;;;;;6.33;1.50;;;29.20;99.90;;;;;;5064127;28;20237;-87
2021/06/21 08:41:13;;;;;;;4.23;1.57;;;29.90;99.90;;;;;;5063309;28;20634;-87
2021/06/21 08:43:44;;;;;;;3.37;1.20;;;29.70;99.90;;;;;;5064072;28;20867;-87
2021/06/21 08:46:11;;;;;;;4.73;1.30;;;29.40;99.90;;;;;;5061661;28;20249;-87
2021/06/21 08:48:43;;;;;;;5.60;1.63;;;30.50;99.90;;;;;;5061504;28;20330;-86
2021/06/21 08:51:13;;;;;;;4.53;1.40;;;31.90;99.90;;;;;;5064919;28;20249;-88
2021/06/21 08:53:42;;;;;;;3.05;1.30;;;32.30;99.90;;;;;;5063511;28;20705;-86
2021/06/21 08:56:12;;;;;;;5.72;1.15;;;31.60;99.90;;;;;;5064107;28;20903;-86
2021/06/21 08:58:46;;;;;;;3.90;1.53;;;30.10;99.90;;;;;;5068381;28;20237;-87
2021/06/21 09:01:13;;;;;;;4.77;1.40;;;29.10;99.90;;;;;;5066054;28;20219;-87
2021/06/21 09:03:41;;;;;;;8.53;1.87;;;28.80;99.90;;;;;;5063062;28;20353;-86
2021/06/21 09:06:18;;;;;;;6.83;1.57;;;28.00;99.90;;;;;;5068000;28;20840;-86
2021/06/21 09:08:58;;;;;;;7.33;1.53;;;26.80;99.90;;;;;;5069308;28;20275;-85
2021/06/21 09:11:54;;;;;;;5.43;2.27;;;26.10;99.90;;;;;;5087935;28;20210;-85
2021/06/21 09:14:36;;;;;;;2.80;1.40;;;25.30;99.90;;;;;;5087663;28;20267;-86
2021/06/21 09:17:05;;;;;;;4.20;1.83;;;25.10;99.90;;;;;;5066543;28;20206;-87
2021/06/21 09:19:45;;;;;;;6.83;1.67;;;25.00;99.90;;;;;;5064392;28;20627;-87
2021/06/21 09:22:39;;;;;;;5.33;1.60;;;24.70;99.90;;;;;;5065205;28;20206;-86
2021/06/21 09:25:26;;;;;;;4.07;1.50;;;24.80;99.90;;;;;;5062818;28;20218;-85
2021/06/21 09:28:04;;;;;;;5.80;1.40;;;25.30;99.90;;;;;;5063050;28;20222;-86
2021/06/21 09:30:48;;;;;;;6.20;1.40;;;25.40;99.90;;;;;;5064341;28;20209;-87
2021/06/21 09:33:29;;;;;;;6.27;1.30;;;25.40;99.90;;;;;;5062522;28;20209;-86
2021/06/21 09:35:56;;;;;;;8.77;1.20;;;25.30;99.90;;;;;;5060182;28;20195;-86
2021/06/21 09:38:23;;;;;;;4.40;1.37;;;25.10;99.90;;;;;;5057883;28;20237;-86
2021/06/21 09:40:57;;;;;;;5.20;1.40;;;25.30;99.90;;;;;;5059160;28;20239;-86
2021/06/21 09:43:28;;;;;;;3.47;1.13;;;25.40;99.90;;;;;;5054005;28;20232;-85
2021/06/21 09:46:19;;;;;;;5.67;1.20;;;25.30;99.90;;;;;;5061178;28;20857;-86
2021/06/21 09:48:49;;;;;;;1.93;1.07;;;25.00;99.90;;;;;;5063238;28;20244;-85
2021/06/21 09:51:34;;;;;;;3.03;1.00;;;25.20;99.90;;;;;;5062502;28;20843;-86
2021/06/21 09:54:03;;;;;;;5.93;1.23;;;25.00;99.90;;;;;;5064531;28;20215;-85
2021/06/21 09:56:35;;;;;;;3.33;1.10;;;25.20;99.90;;;;;;5064047;28;20206;-84
2021/06/21 09:59:17;;;;;;;4.30;1.20;;;25.60;99.90;;;;;;5065666;28;20237;-86
2021/06/21 10:01:44;;;;;;;2.20;0.87;;;25.80;99.90;;;;;;5066343;28;20619;-86
2021/06/21 10:04:22;;;;;;;2.10;1.07;;;25.50;99.90;;;;;;5065309;28;20616;-85
2021/06/21 10:06:49;;;;;;;3.23;0.97;;;25.50;99.90;;;;;;5064702;28;20238;-86
2021/06/21 10:09:17;;;;;;;2.67;1.17;;;25.70;99.90;;;;;;5062163;28;20230;-86
2021/06/21 10:11:53;;;;;;;6.47;1.30;;;25.60;99.90;;;;;;5068208;28;20206;-86
2021/06/21 10:14:22;;;;;;;5.07;1.07;;;25.90;99.90;;;;;;5068119;28;20210;-85
2021/06/21 10:16:51;;;;;;;3.73;0.80;;;26.00;99.90;;;;;;5065485;28;20232;-86
2021/06/21 10:19:21;;;;;;;2.03;0.93;;;25.80;99.90;;;;;;5067369;28;20241;-86
2021/06/21 10:21:52;;;;;;;2.60;1.23;;;26.00;99.90;;;;;;5065939;28;20199;-86
2021/06/21 10:24:20;;;;;;;4.37;1.00;;;26.00;99.90;;;;;;5060465;28;20218;-84
2021/06/21 10:26:51;;;;;;;2.80;1.00;;;25.80;99.90;;;;;;5068491;28;20218;-86
2021/06/21 10:29:18;;;;;;;2.50;1.07;;;26.00;99.90;;;;;;5063486;28;20242;-86
2021/06/21 10:31:46;;;;;;;3.37;0.97;;;25.90;99.90;;;;;;5061762;28;20682;-86
2021/06/21 10:34:17;;;;;;;1.50;0.83;;;26.10;99.90;;;;;;5060375;28;20219;-86
2021/06/21 10:36:47;;;;;;;8.07;0.90;;;26.10;99.90;;;;;;5064719;28;20194;-86
2021/06/21 10:39:19;;;;;;;3.50;1.10;;;26.00;99.90;;;;;;5064238;28;20325;-86
2021/06/21 10:42:19;;;;;;;5.00;1.07;;;26.10;99.90;;;;;;5068204;28;20250;-85
2021/06/21 10:44:50;;;;;;;3.03;1.10;;;26.10;99.90;;;;;;5065573;28;20214;-86
2021/06/21 10:47:31;;;;;;;2.27;0.83;;;25.90;99.90;;;;;;5078676;28;20239;-85
2021/06/21 10:50:10;;;;;;;3.73;0.90;;;25.90;99.90;;;;;;5088402;28;20223;-85
2021/06/21 10:52:40;;;;;;;2.63;1.10;;;25.90;99.90;;;;;;5071321;28;20198;-85
2021/06/21 10:55:37;;;;;;;2.70;1.03;;;25.90;99.90;;;;;;5063649;28;20252;-85
2021/06/21 10:58:08;;;;;;;4.73;1.00;;;25.90;99.90;;;;;;5061585;28;20270;-86
2021/06/21 11:00:38;;;;;;;2.83;1.00;;;25.90;99.90;;;;;;5062458;28;20281;-85
2021/06/21 11:03:37;;;;;;;2.50;1.07;;;26.00;99.90;;;;;;5063185;28;20214;-86
2021/06/21 11:06:06;;;;;;;3.13;0.90;;;26.20;99.90;;;;;;5065061;28;20302;-86
2021/06/21 11:08:45;;;;;;;4.30;1.13;;;25.80;99.90;;;;;;5064200;28;20234;-85
2021/06/21 11:11:48;;;;;;;2.53;1.37;;;26.00;99.90;;;;;;5069442;28;20290;-86
2021/06/21 11:14:19;;;;;;;3.20;0.90;;;25.90;99.90;;;;;;5061470;28;20206;-86
2021/06/21 11:16:48;;;;;;;4.10;1.17;;;25.90;99.90;;;;;;5065605;28;20216;-86
2021/06/21 11:19:33;;;;;;;2.97;0.90;;;26.10;99.90;;;;;;5067289;28;20695;-86
2021/06/21 11:22:06;;;;;;;3.27;0.90;;;26.20;99.90;;;;;;5058814;28;20198;-87
2021/06/21 11:24:53;;;;;;;1.97;1.00;;;26.10;99.90;;;;;;5067483;28;20214;-87
2021/06/21 11:27:22;;;;;;;2.00;1.00;;;26.00;99.90;;;;;;5065956;28;20281;-86
2021/06/21 11:29:54;;;;;;;3.53;1.10;;;25.90;99.90;;;;;;5064713;28;20214;-87
2021/06/21 11:32:27;;;;;;;1.83;0.90;;;25.70;99.90;;;;;;5065895;28;20250;-86
2021/06/21 11:34:59;;;;;;;3.27;1.37;;;25.50;99.90;;;;;;5070395;28;20259;-86
2021/06/21 11:37:35;;;;;;;3.63;1.07;;;25.50;99.90;;;;;;5070632;28;20621;-87
2021/06/21 11:40:29;;;;;;;3.57;1.20;;;25.60;99.90;;;;;;5067533;28;20226;-86
2021/06/21 11:43:16;;;;;;;3.23;1.27;;;25.60;99.90;;;;;;5061547;28;20210;-87
2021/06/21 11:46:04;;;;;;;3.17;1.20;;;25.60;99.90;;;;;;5062436;28;20222;-86
2021/06/21 11:48:37;;;;;;;2.97;1.10;;;25.70;99.90;;;;;;5052752;28;20326;-86
2021/06/21 11:51:20;;;;;;;3.57;1.20;;;26.10;99.90;;;;;;5058593;28;20581;-87
2021/06/21 11:53:56;;;;;;;5.93;1.20;;;26.20;99.90;;;;;;5059831;28;20586;-86
2021/06/21 11:56:25;;;;;;;3.70;1.20;;;26.30;99.90;;;;;;5070225;28;20228;-86
2021/06/21 11:58:56;;;;;;;1.83;1.10;;;26.00;99.90;;;;;;5064447;28;20833;-86
2021/06/21 12:01:31;;;;;;;3.10;1.00;;;25.90;99.90;;;;;;5064807;28;20210;-86
2021/06/21 12:04:00;;;;;;;3.20;1.23;;;25.70;99.90;;;;;;5063848;28;20301;-86
2021/06/21 12:06:31;;;;;;;1.50;1.00;;;25.80;99.90;;;;;;5067177;28;20225;-87
2021/06/21 12:09:02;;;;;;;3.70;1.23;;;25.80;99.90;;;;;;5064459;28;20737;-86
2021/06/21 12:11:34;;;;;;;3.57;1.40;;;26.00;99.90;;;;;;5063851;28;20228;-86
2021/06/21 12:14:03;;;;;;;7.47;1.03;;;26.20;99.90;;;;;;5068536;28;20209;-85
2021/06/21 12:16:42;;;;;;;4.13;1.10;;;26.10;99.90;;;;;;5066895;28;20214;-86
2021/06/21 12:19:09;;;;;;;2.10;1.03;;;26.00;99.90;;;;;;5070609;28;20234;-85
2021/06/21 12:21:40;;;;;;;5.63;1.20;;;25.90;99.90;;;;;;5065156;28;20206;-86
2021/06/21 12:24:18;;;;;;;3.33;0.90;;;26.00;99.90;;;;;;5090146;28;20206;-85
2021/06/21 12:26:48;;;;;;;2.03;0.90;;;26.00;99.90;;;;;;5093898;28;20194;-85
2021/06/21 12:29:36;;;;;;;2.07;0.93;;;26.10;99.90;;;;;;5074919;28;20230;-86
2021/06/21 12:32:06;;;;;;;4.83;1.00;;;26.10;99.90;;;;;;5056631;28;20210;-86
2021/06/21 12:34:54;;;;;;;4.03;1.23;;;26.20;99.90;;;;;;5064813;28;20214;-86
2021/06/21 12:37:24;;;;;;;2.40;1.20;;;26.40;99.90;;;;;;5069728;28;20210;-86
2021/06/21 12:39:54;;;;;;;2.80;1.07;;;26.10;99.90;;;;;;5065527;28;20223;-88
2021/06/21 12:42:22;;;;;;;5.37;0.90;;;26.20;99.90;;;;;;5067268;28;20252;-87
2021/06/21 12:44:50;;;;;;;3.57;1.30;;;26.40;99.90;;;;;;5065054;28;20723;-86
2021/06/21 12:47:26;;;;;;;1.87;1.10;;;26.50;99.90;;;;;;5066984;28;20214;-87
2021/06/21 12:49:56;;;;;;;3.97;1.10;;;26.60;99.90;;;;;;5064243;28;20225;-87
2021/06/21 12:52:25;;;;;;;9.07;1.80;;;26.00;99.90;;;;;;5061266;28;20693;-86
2021/06/21 12:55:05;;;;;;;3.07;1.43;;;25.30;99.90;;;;;;5064126;28;20207;-87
2021/06/21 12:57:46;;;;;;;5.10;1.50;;;24.90;99.90;;;;;;5057129;28;20234;-86
2021/06/21 13:00:16;;;;;;;5.53;1.50;;;24.80;99.90;;;;;;5062028;28;20219;-85
2021/06/21 13:02:45;;;;;;;2.50;1.83;;;24.80;99.90;;;;;;5062449;28;20658;-86
2021/06/21 13:05:14;;;;;;;2.70;2.17;;;24.30;99.90;;;;;;5066878;28;20206;-87
2021/06/21 13:07:42;;;;;;;2.67;2.17;;;24.40;99.90;;;;;;5064724;28;20225;-87
2021/06/21 13:10:12;;;;;;;2.53;2.17;;;24.60;99.90;;;;;;5058368;28;20207;-86
2021/06/21 13:12:43;;;;;;;2.87;2.37;;;24.50;99.90;;;;;;5063843;28;20213;-86
2021/06/21 13:15:18;;;;;;;3.20;2.60;;;24.70;99.90;;;;;;5064600;28;20262;-87
2021/06/21 13:17:52;;;;;;;7.70;3.07;;;24.00;99.90;;;;;;5061657;28;20230;-86
2021/06/21 13:20:20;;;;;;;6.30;2.87;;;23.60;99.90;;;;;;5066050;28;20223;-86
2021/06/21 13:22:51;;;;;;;6.53;2.97;;;23.50;99.90;;;;;;5067741;28;20233;-85
2021/06/21 13:25:22;;;;;;;4.40;2.70;;;23.40;99.90;;;;;;5066468;28;20288;-86
2021/06/21 13:27:51;;;;;;;2.77;2.10;;;23.50;99.90;;;;;;5066102;28;20234;-85
2021/06/21 13:30:31;;;;;;;3.43;2.03;;;23.80;99.90;;;;;;5062648;28;20202;-86
2021/06/21 13:33:07;;;;;;;5.10;2.27;;;24.00;99.90;;;;;;5062778;28;21824;-86
2021/06/21 13:35:35;;;;;;;3.47;2.07;;;24.00;99.90;;;;;;5060131;28;20204;-84
2021/06/21 13:38:02;;;;;;;4.00;1.97;;;24.20;99.90;;;;;;5073377;28;20242;-85
2021/06/21 13:40:36;;;;;;;1.90;1.70;;;24.20;99.90;;;;;;5067719;28;20217;-86
2021/06/21 13:43:07;;;;;;;4.43;2.03;;;24.30;99.90;;;;;;5068807;28;20217;-85
2021/06/21 13:45:36;;;;;;;2.13;1.87;;;24.20;99.90;;;;;;5070072;28;20230;-86
2021/06/21 13:48:08;;;;;;;3.17;2.20;;;24.00;99.90;;;;;;5070870;28;20233;-88
2021/06/21 13:50:36;;;;;;;2.57;2.20;;;23.70;99.90;;;;;;5068889;28;20212;-87
2021/06/21 13:53:05;;;;;;;3.40;2.40;;;23.40;99.90;;;;;;5063079;28;20202;-86
2021/06/21 13:55:44;;;;;;;4.20;2.33;;;23.30;99.90;;;;;;5067990;28;20214;-86
2021/06/21 13:58:13;;;;;;;3.07;2.10;;;23.20;99.90;;;;;;5074924;28;20332;-88
2021/06/21 14:00:48;;;;;;;3.93;2.20;;;23.30;99.90;;;;;;5085585;28;20227;-86
2021/06/21 14:03:27;;;;;;;3.40;2.43;;;23.40;99.90;;;;;;5080528;28;20210;-85
2021/06/21 14:05:56;;;;;;;3.23;2.60;;;23.00;99.90;;;;;;5064757;28;20301;-86
2021/06/21 14:08:24;;;;;;;5.37;2.87;;;22.80;99.90;;;;;;5070926;28;20231;-84
2021/06/21 14:10:51;;;;;;;5.20;3.67;;;22.80;99.90;;;;;;5068584;28;20218;-86
2021/06/21 14:13:18;;;;;;;5.07;3.40;;;22.50;99.90;;;;;;5070988;28;20218;-85
2021/06/21 14:15:45;;;;;;;4.93;3.70;;;22.40;99.90;;;;;;5070456;28;20213;-86
2021/06/21 14:18:13;;;;;;;6.53;3.80;;;22.20;99.90;;;;;;5067472;28;20238;-86
2021/06/21 14:20:45;;;;;;;11.00;3.77;;;22.10;99.90;;;;;;5063198;28;20628;-85
2021/06/21 14:23:13;;;;;;;5.20;3.97;;;22.20;99.90;;;;;;5069831;28;20214;-84
2021/06/21 14:25:41;;;;;;;4.90;3.30;;;22.30;99.90;;;;;;5075381;28;20748;-85
2021/06/21 14:28:08;;;;;;;6.00;3.20;;;22.40;99.90;;;;;;5071810;28;20295;-86
2021/06/21 14:30:36;;;;;;;5.20;3.30;;;22.30;99.90;;;;;;5069211;28;20221;-85
2021/06/21 14:33:04;;;;;;;5.67;2.83;;;22.30;99.90;;;;;;5062451;28;20202;-86
2021/06/21 14:35:31;;;;;;;4.07;3.00;;;22.10;99.90;;;;;;5068899;28;20210;-85
2021/06/21 14:38:00;;;;;;;7.63;2.77;;;22.10;99.90;;;;;;5072121;28;20283;-85
2021/06/21 14:40:27;;;;;;;3.83;2.87;;;21.90;99.90;;;;;;5068412;28;20234;-86
2021/06/21 14:42:54;;;;;;;4.83;2.57;;;21.50;99.90;;;;;;5072140;28;20221;-86
2021/06/21 14:45:21;;;;;;;5.10;2.93;;;21.90;99.90;;;;;;5069236;28;20233;-86
2021/06/21 14:47:48;;;;;;;3.97;2.87;;;22.00;99.90;;;;;;5065407;28;20222;-85
2021/06/21 14:50:19;;;;;;;3.73;2.60;;;21.70;99.90;;;;;;5069853;28;20562;-85
2021/06/21 14:52:48;;;;;;;4.23;3.00;;;21.60;99.90;;;;;;5069700;28;20226;-86